Latest Weather Observations for Melbourne Airport

IDV60801

Issued at 8:02 am EST Saturday 29 August 2015 (issued every 30 minutes, with the page automatically refreshed every 10 minutes)

About weather observations | Map of weather stations | Latest weather observations for VIC | Other Formats
Station Details ID: 086282 Name: MELBOURNE AIRPORT Lat: -37.67 Lon: 144.83 Height: 113.4 m
Data from the previous 72 hours. | See also: Recent months at Melbourne Airport
Date/Time
EST
Temp
°C
App
Temp
°C
Dew
Point
Rel
Hum
%
Delta-T
°C
Wind Press
QNH
hPa
Press
MSL
hPa
Rain
since 9 am
mm
Dir
 
Spd
km/h
Gust
km/h
Spd
kts
Gust
kts
29/07:30am 4.4 -0.7 0.8 77 1.4 WSW 17 20 9 11 1027.0 1027.1 1.8
29/07:00am 4.1 -1.0 0.7 78 1.3 WSW 17 20 9 11 1026.6 1026.8 1.8
29/06:30am 4.4 0.1 0.8 77 1.4 WSW 13 19 7 10 1026.4 1026.6 1.8
29/06:00am 3.8 1.0 1.8 87 0.8 WSW 6 9 3 5 1026.1 1026.3 1.8
29/05:30am 3.7 0.1 0.8 81 1.1 SW 9 11 5 6 1026.2 1026.4 1.8
29/05:00am 3.8 0.3 1.2 83 1.0 SW 9 13 5 7 1026.1 1026.3 1.8
29/04:30am 4.5 1.1 2.0 84 1.0 SSW 9 15 5 8 1026.0 1026.2 1.8
29/04:00am 5.1 1.2 3.2 87 0.8 WSW 13 17 7 9 1025.9 1026.1 1.8
29/03:30am 5.1 0.8 3.4 89 0.7 WSW 15 20 8 11 1025.8 1026.0 1.8
29/03:00am 5.3 1.8 3.6 89 0.7 SW 11 19 6 10 1026.0 1026.2 1.8
29/02:30am 5.2 1.3 3.5 89 0.7 SW 13 20 7 11 1026.2 1026.4 1.4
29/02:00am 5.1 0.5 1.8 79 1.3 WSW 15 19 8 10 1026.5 1026.7 1.0
29/01:30am 5.5 0.6 2.3 80 1.3 SW 17 24 9 13 1026.5 1026.7 1.0
29/01:00am 6.2 0.5 0.6 67 2.2 WSW 20 30 11 16 1026.5 1026.7 1.0
29/12:30am 6.0 -0.1 0.3 67 2.2 WSW 22 26 12 14 1026.3 1026.5 1.0
29/12:00am 5.8 0.1 0.4 68 2.1 WSW 20 26 11 14 1026.4 1026.6 1.0
 
Date/Time
EST
Temp
°C
App
Temp
°C
Dew
Point
Rel
Hum
%
Delta-T
°C
Wind Press
QNH
hPa
Press
MSL
hPa
Rain
since 9 am
mm
Dir
 
Spd
km/h
Gust
km/h
Spd
kts
Gust
kts
28/11:30pm 5.0 0.7 0.9 75 1.6 W 13 17 7 9 1026.5 1026.7 1.0
28/11:00pm 5.1 0.0 0.7 73 1.7 W 17 22 9 12 1026.8 1027.0 1.0
28/10:30pm 6.0 0.5 0.6 68 2.1 WSW 19 22 10 12 1027.0 1027.1 1.0
28/10:00pm 6.3 0.9 1.0 69 2.1 WSW 19 24 10 13 1027.2 1027.3 1.0
28/09:30pm 7.0 1.0 1.3 67 2.3 WSW 22 30 12 16 1027.1 1027.2 1.0
28/09:00pm 7.4 2.1 2.0 68 2.2 WSW 19 26 10 14 1026.8 1027.0 1.0
28/08:30pm 7.6 3.1 2.3 69 2.2 WSW 15 22 8 12 1026.6 1026.8 1.0
28/08:00pm 7.7 3.2 2.1 67 2.3 WSW 15 20 8 11 1026.4 1026.6 1.0
28/07:30pm 8.1 3.6 2.1 66 2.5 SW 15 19 8 10 1026.3 1026.5 1.0
28/07:00pm 8.5 3.1 1.4 61 2.9 SW 19 26 10 14 1026.2 1026.4 1.0
28/06:30pm 8.7 3.3 2.5 65 2.6 SSW 20 28 11 15 1026.0 1026.2 1.0
28/06:00pm 8.8 4.5 3.5 69 2.3 SSW 15 22 8 12 1025.6 1025.8 1.0
28/05:30pm 9.3 4.2 3.0 65 2.7 SSW 19 30 10 16 1025.4 1025.6 1.0
28/05:00pm 9.6 3.9 4.9 72 2.1 S 24 33 13 18 1025.2 1025.4 1.0
28/04:30pm 9.9 4.2 5.0 71 2.2 S 24 33 13 18 1025.0 1025.2 1.0
28/04:00pm 10.1 3.7 5.3 72 2.2 S 28 33 15 18 1024.8 1025.0 1.0
28/03:30pm 10.6 4.8 6.1 74 2.1 S 26 35 14 19 1024.8 1025.0 1.0
28/03:00pm 10.4 5.2 7.3 81 1.5 S 24 32 13 17 1024.7 1024.9 1.0
28/02:30pm 10.8 6.1 7.9 82 1.4 S 22 30 12 16 1024.7 1024.9 0.4
28/02:00pm 11.0 6.7 7.7 80 1.6 S 20 30 11 16 1024.7 1024.9 0.4
28/01:30pm 10.5 6.1 7.6 82 1.4 S 20 33 11 18 1024.8 1025.0 0.4
28/01:00pm 11.1 6.7 6.7 74 2.1 SSW 19 32 10 17 1025.1 1025.3 0.4
28/12:30pm 12.1 7.5 6.4 68 2.7 SSW 20 28 11 15 1025.4 1025.6 0.4
28/12:00pm 11.3 5.4 5.9 69 2.5 SSW 26 35 14 19 1025.8 1026.0 0.4
28/11:30am 11.0 6.1 5.3 68 2.6 SSW 20 28 11 15 1026.1 1026.3 0.4
28/11:00am 11.0 6.3 6.1 72 2.3 SSW 20 30 11 16 1026.2 1026.4 0.4
28/10:30am 10.3 7.4 8.0 86 1.1 SW 13 19 7 10 1026.3 1026.5 0.4
28/10:12am 9.4 6.4 7.9 90 0.7 SSW 13 22 7 12 1026.3 1026.5 0.4
28/10:00am 8.8 5.9 8.2 96 0.3 S 13 19 7 10 1026.3 1026.5 0.4
28/09:49am 8.7 4.4 7.2 90 0.7 S 19 26 10 14 1026.3 1026.5 0.0
28/09:40am 9.3 4.8 7.0 85 1.1 S 20 28 11 15 1026.2 1026.4 0.0
28/09:30am 9.4 4.4 6.6 83 1.3 SSW 22 35 12 19 1026.1 1026.3 0.0
28/09:00am 9.2 5.7 7.1 87 1.0 SW 15 22 8 12 1026.1 1026.3 3.0
28/08:30am 8.1 4.9 6.8 91 0.6 SW 13 17 7 9 1026.0 1026.2 3.0
28/08:00am 7.4 3.7 6.3 93 0.5 WSW 15 19 8 10 1025.6 1025.8 3.0
28/07:30am 7.1 3.4 6.2 94 0.4 WSW 15 19 8 10 1025.4 1025.6 3.0
28/07:00am 6.8 2.6 5.9 94 0.4 WSW 17 24 9 13 1025.1 1025.3 3.0
28/06:30am 7.0 2.5 5.9 93 0.5 SW 19 26 10 14 1024.8 1025.0 3.0
28/06:00am 6.9 3.1 5.6 91 0.6 WSW 15 17 8 9 1024.7 1024.9 3.0
28/05:30am 6.8 2.6 5.7 93 0.5 WSW 17 20 9 11 1024.4 1024.6 3.0
28/05:00am 6.9 3.1 5.8 93 0.5 W 15 19 8 10 1024.1 1024.3 3.0
28/04:30am 6.6 2.8 5.7 94 0.4 W 15 17 8 9 1024.0 1024.2 3.0
28/04:00am 6.6 3.2 5.7 94 0.4 WSW 13 19 7 10 1024.0 1024.2 3.0
28/03:30am 7.3 3.9 6.0 91 0.6 WSW 13 15 7 8 1024.1 1024.3 3.0
28/03:00am 7.2 4.2 6.1 93 0.5 WSW 11 13 6 7 1024.1 1024.3 3.0
28/02:30am 7.1 3.7 6.0 93 0.5 WSW 13 17 7 9 1024.2 1024.4 3.0
28/02:00am 6.8 3.4 5.9 94 0.4 WSW 13 15 7 8 1024.2 1024.4 3.0
28/01:30am 7.6 3.9 6.3 91 0.6 SW 15 19 8 10 1024.2 1024.4 3.0
28/01:00am 8.2 4.2 6.7 90 0.7 SW 17 20 9 11 1024.0 1024.2 3.0
28/12:30am 8.5 4.9 6.8 89 0.8 SSW 15 20 8 11 1023.9 1024.1 3.0
28/12:00am 9.7 5.3 7.2 84 1.2 SSW 20 30 11 16 1023.8 1024.0 3.0
 
Date/Time
EST
Temp
°C
App
Temp
°C
Dew
Point
Rel
Hum
%
Delta-T
°C
Wind Press
QNH
hPa
Press
MSL
hPa
Rain
since 9 am
mm
Dir
 
Spd
km/h
Gust
km/h
Spd
kts
Gust
kts
27/11:30pm 9.9 5.3 8.0 88 0.9 SSW 22 28 12 15 1023.7 1023.9 3.0
27/11:00pm 10.2 5.6 8.1 87 1.0 S 22 28 12 15 1023.6 1023.8 3.0
27/10:30pm 10.2 5.3 8.4 89 0.9 S 24 30 13 16 1023.3 1023.5 3.0
27/10:00pm 10.3 5.1 8.7 90 0.8 S 26 33 14 18 1023.1 1023.3 3.0
27/09:30pm 10.4 5.7 9.4 93 0.5 S 24 39 13 21 1022.9 1023.1 3.0
27/09:00pm 10.4 4.7 9.8 96 0.3 S 30 44 16 24 1022.7 1022.9 3.0
27/08:46pm 10.7 5.7 9.7 93 0.5 S 26 39 14 21 1022.6 1022.8 3.0
27/08:30pm 10.6 5.0 10.0 96 0.3 S 30 41 16 22 1022.4 1022.6 2.6
27/08:17pm 10.8 6.3 10.0 95 0.4 S 24 33 13 18 1022.2 1022.4 2.4
27/08:00pm 10.9 6.7 9.9 93 0.5 S 22 30 12 16 1022.1 1022.3 2.4
27/07:30pm 10.9 6.8 10.1 95 0.4 S 22 28 12 15 1021.9 1022.1 2.4
27/07:00pm 11.0 6.5 10.0 93 0.5 S 24 35 13 19 1021.5 1021.6 2.4
27/06:30pm 10.9 7.2 10.1 95 0.4 SSW 20 28 11 15 1021.2 1021.3 2.4
27/06:00pm 11.0 7.8 9.8 92 0.6 SSW 17 24 9 13 1020.8 1020.9 2.4
27/05:30pm 11.0 7.3 10.0 93 0.5 SSW 20 32 11 17 1020.4 1020.5 2.2
27/05:00pm 11.2 6.6 9.8 91 0.7 SSW 24 32 13 17 1020.2 1020.3 2.2
27/04:30pm 11.2 7.6 10.0 92 0.6 SW 19 24 10 13 1020.0 1020.1 2.2
27/04:00pm 11.2 8.4 10.0 92 0.6 SW 15 20 8 11 1020.0 1020.1 1.8
27/03:30pm 11.1 7.9 9.9 92 0.6 SW 17 24 9 13 1020.1 1020.2 1.8
27/03:00pm 11.1 8.7 9.9 92 0.6 SSW 13 19 7 10 1020.1 1020.2 1.6
27/02:30pm 11.0 8.1 9.8 92 0.6 SW 15 20 8 11 1020.1 1020.2 1.4
27/02:00pm 10.6 7.3 9.6 93 0.5 SW 17 22 9 12 1020.2 1020.3 1.2
27/01:30pm 10.7 6.9 9.1 90 0.8 SW 19 26 10 14 1020.4 1020.5 0.8
27/01:00pm 10.9 7.6 9.5 91 0.7 SW 17 26 9 14 1020.6 1020.7 0.8
27/12:45pm 10.9 8.0 9.5 91 0.7 SW 15 19 8 10 1020.7 1020.8 0.8
27/12:30pm 10.6 7.6 9.4 92 0.6 SW 15 17 8 9 1020.9 1021.0 0.6
27/12:00pm 10.4 8.2 9.2 92 0.6 WSW 11 13 6 7 1021.2 1021.3 0.4
27/11:30am 10.4 7.7 9.0 91 0.7 WSW 13 15 7 8 1021.4 1021.5 0.4
27/11:00am 10.2 7.5 8.8 91 0.7 WSW 13 15 7 8 1021.5 1021.6 0.4
27/10:30am 9.9 7.1 8.5 91 0.7 WSW 13 15 7 8 1021.5 1021.6 0.4
27/10:00am 9.8 7.5 9.0 95 0.4 SW 11 13 6 7 1021.6 1021.8 0.4
27/09:30am 9.3 6.9 8.5 95 0.4 W 11 15 6 8 1021.9 1022.1 0.0
27/09:00am 9.3 6.8 8.3 93 0.5 WSW 11 13 6 7 1022.0 1022.2 1.2
27/08:30am 9.1 6.5 7.8 92 0.6 W 11 13 6 7 1022.0 1022.2 1.0
27/08:00am 8.9 6.8 8.1 95 0.4 W 9 11 5 6 1021.7 1021.9 1.0
27/07:30am 8.7 6.4 7.6 93 0.5 WSW 9 11 5 6 1021.3 1021.4 1.0
27/07:00am 8.7 6.9 8.1 96 0.3 SSW 7 9 4 5 1021.2 1021.3 0.6
27/06:42am 9.3 7.9 7.4 88 0.9 S 4 7 2 4 1021.2 1021.3 0.2
27/06:30am 9.4 8.7 7.1 85 1.1 CALM 0 0 0 0 1021.1 1021.2 0.0
27/06:00am 9.1 8.5 7.4 89 0.8 CALM 0 0 0 0 1020.7 1020.8 0.0
27/05:30am 9.2 7.2 6.9 85 1.1 N 7 9 4 5 1020.5 1020.6 0.0
27/05:00am 9.0 6.6 6.9 87 1.0 N 9 11 5 6 1020.4 1020.5 0.0
27/04:30am 8.9 6.8 6.8 87 1.0 N 7 9 4 5 1020.4 1020.5 0.0
27/04:00am 8.6 6.1 6.4 86 1.0 N 9 13 5 7 1020.7 1020.8 0.0
27/03:30am 8.6 6.6 6.4 86 1.0 NW 6 7 3 4 1020.8 1020.9 0.0
27/03:00am 8.7 6.1 6.1 84 1.2 W 9 11 5 6 1021.0 1021.1 0.0
27/02:30am 8.5 6.3 6.3 86 1.0 NNW 7 7 4 4 1021.3 1021.4 0.0
27/02:00am 9.3 7.3 6.3 81 1.4 NW 6 7 3 4 1021.7 1021.9 0.0
27/01:30am 9.2 6.6 6.2 81 1.4 NW 9 9 5 5 1022.0 1022.2 0.0
27/01:00am 8.8 6.6 6.2 84 1.2 W 7 9 4 5 1022.1 1022.3 0.0
27/12:30am 9.0 6.7 5.9 81 1.4 W 7 7 4 4 1022.3 1022.5 0.0
27/12:00am 8.8 6.2 6.0 82 1.3 WNW 9 11 5 6 1022.5 1022.7 0.0
 
Date/Time
EST
Temp
°C
App
Temp
°C
Dew
Point
Rel
Hum
%
Delta-T
°C
Wind Press
QNH
hPa
Press
MSL
hPa
Rain
since 9 am
mm
Dir
 
Spd
km/h
Gust
km/h
Spd
kts
Gust
kts
26/11:30pm 9.4 7.1 5.7 78 1.7 WNW 7 9 4 5 1022.7 1022.9 0.0
26/11:00pm 9.6 7.5 6.6 81 1.4 W 7 9 4 5 1022.9 1023.1 0.0
26/10:30pm 9.7 7.8 6.7 81 1.4 WSW 6 7 3 4 1023.2 1023.4 0.0
26/10:00pm 9.4 6.7 5.7 78 1.7 WNW 9 11 5 6 1023.5 1023.7 0.0
26/09:30pm 9.5 7.6 4.8 72 2.1 W 4 9 2 5 1023.5 1023.7 0.0
26/09:00pm 11.1 10.0 5.0 66 2.8 CALM 0 0 0 0 1023.3 1023.5 0.0
26/08:30pm 11.5 10.5 5.4 66 2.8 CALM 0 0 0 0 1023.4 1023.6 0.0
26/08:00pm 11.6 9.6 6.1 69 2.6 SSW 6 7 3 4 1023.3 1023.5 0.0
26/07:30pm 11.5 9.5 6.9 73 2.2 SSW 7 7 4 4 1023.3 1023.5 0.0
26/07:00pm 12.0 9.0 6.0 66 2.8 S 11 13 6 7 1023.2 1023.4 0.0
26/06:30pm 12.0 9.4 6.3 68 2.7 SSW 9 9 5 5 1023.0 1023.2 0.0
26/06:00pm 12.7 10.1 5.9 63 3.2 S 9 11 5 6 1022.8 1023.0 0.0
26/05:30pm 13.7 10.7 5.9 59 3.7 S 11 13 6 7 1022.7 1022.9 0.0
26/05:00pm 14.3 11.2 5.4 55 4.2 S 11 13 6 7 1022.6 1022.8 0.0
26/04:30pm 14.4 10.9 5.5 55 4.2 S 13 17 7 9 1022.5 1022.7 0.0
26/04:00pm 14.9 11.7 5.2 52 4.6 SE 11 15 6 8 1022.5 1022.7 0.0
26/03:30pm 14.9 11.9 4.3 49 4.9 SE 9 17 5 9 1022.7 1022.9 0.0
26/03:00pm 15.1 12.6 4.6 49 4.9 SE 7 13 4 7 1022.7 1022.9 0.0
26/02:30pm 15.2 13.0 5.3 51 4.7 ESE 6 11 3 6 1022.9 1023.1 0.0
26/02:00pm 14.6 12.4 5.5 54 4.3 ESE 6 11 3 6 1023.1 1023.3 0.0
26/01:30pm 14.5 11.8 5.7 55 4.2 SSE 9 13 5 7 1023.3 1023.5 0.0
26/01:00pm 14.4 11.6 5.0 53 4.4 E 9 15 5 8 1023.6 1023.8 0.0
26/12:30pm 13.4 10.8 6.3 62 3.4 SE 9 13 5 7 1024.2 1024.4 0.0
26/12:00pm 12.7 11.0 5.9 63 3.2 ESE 4 11 2 6 1024.9 1025.1 0.0
26/11:30am 12.4 10.5 6.8 68 2.7 E 6 9 3 5 1025.4 1025.6 0.0
26/11:00am 12.1 10.1 6.2 67 2.8 SSW 6 9 3 5 1025.7 1025.9 0.0
26/10:30am 11.1 9.2 6.7 74 2.1 W 6 9 3 5 1025.9 1026.1 0.0
26/10:00am 10.4 7.8 6.3 76 1.9 WSW 9 11 5 6 1026.0 1026.2 0.0
26/09:30am 10.1 7.6 6.7 79 1.6 W 9 11 5 6 1026.1 1026.3 0.0
26/09:00am 9.7 7.2 6.5 80 1.5 WNW 9 11 5 6 1026.0 1026.2 0.0
26/08:30am 9.0 6.1 6.6 85 1.1 WNW 11 13 6 7 1026.1 1026.3 0.0

Other Formats:

Comma delimited format used in spreadsheet applications
http://www.bom.gov.au/fwo/IDV60801/IDV60801.94866.axf

JavaScript Object Notation format (JSON) in row-major order
http://www.bom.gov.au/fwo/IDV60801/IDV60801.94866.json